createdAt,value
2017-07-28T00:02:26.396Z,93.20
2017-07-28T00:04:55.698Z,91.87
2017-07-28T00:07:25.300Z,90.97
2017-07-28T00:09:54.741Z,93.82
2017-07-28T00:12:37.578Z,94.19
2017-07-28T00:15:07.194Z,95.59
2017-07-28T00:17:36.700Z,94.81
2017-07-28T00:20:07.705Z,95.89
2017-07-28T00:22:37.110Z,96.66
2017-07-28T00:25:06.614Z,96.81
2017-07-28T00:27:36.256Z,93.45
2017-07-28T00:30:05.823Z,92.72
2017-07-28T00:32:35.166Z,93.06
2017-07-28T00:35:05.060Z,92.87
2017-07-28T00:37:34.454Z,93.26
2017-07-28T00:40:04.036Z,95.17
2017-07-28T00:42:33.728Z,95.68
2017-07-28T00:45:03.330Z,93.15
2017-07-28T00:47:32.881Z,92.18
2017-07-28T00:50:02.745Z,91.72
2017-07-28T00:52:31.891Z,91.42
2017-07-28T00:55:01.808Z,92.08
2017-07-28T00:57:31.550Z,91.11
2017-07-28T01:00:00.999Z,93.70
2017-07-28T01:02:30.562Z,91.19
2017-07-28T01:05:00.460Z,92.28
2017-07-28T01:07:29.737Z,92.63
2017-07-28T01:09:59.115Z,93.57
2017-07-28T01:12:29.038Z,94.50
2017-07-28T01:14:58.554Z,95.04
2017-07-28T01:17:27.850Z,94.03
2017-07-28T01:19:57.727Z,94.77
2017-07-28T01:22:27.314Z,94.61
2017-07-28T01:24:56.605Z,93.96
2017-07-28T01:27:26.526Z,94.71
2017-07-28T01:29:55.937Z,94.27
2017-07-28T01:32:25.427Z,93.29
2017-07-28T01:34:55.046Z,92.54
2017-07-28T01:37:24.515Z,91.82
2017-07-28T01:39:53.692Z,92.04
2017-07-28T01:42:24.459Z,92.69
2017-07-28T01:44:53.959Z,91.87
2017-07-28T01:47:24.631Z,91.40
2017-07-28T01:49:54.520Z,91.85
2017-07-28T01:52:24.583Z,91.63
2017-07-28T01:54:54.015Z,91.83
2017-07-28T01:57:24.627Z,93.37
2017-07-28T01:59:54.249Z,92.16
2017-07-28T02:02:23.755Z,92.11
2017-07-28T02:04:53.807Z,90.88
2017-07-28T02:07:24.955Z,91.37
2017-07-28T02:09:54.414Z,91.05
2017-07-28T02:12:25.066Z,91.10
2017-07-28T02:14:54.213Z,90.56
2017-07-28T02:17:24.179Z,90.02
2017-07-28T02:19:53.619Z,89.36
2017-07-28T02:22:24.002Z,89.56
2017-07-28T02:24:53.187Z,89.43
2017-07-28T02:27:24.294Z,88.92
2017-07-28T02:29:53.753Z,89.01
2017-07-28T02:32:24.635Z,89.00
2017-07-28T02:34:54.398Z,89.07
2017-07-28T02:37:24.268Z,88.85
2017-07-28T02:39:53.703Z,88.74
2017-07-28T02:42:24.514Z,88.21
2017-07-28T02:44:54.024Z,88.93
2017-07-28T02:47:24.626Z,89.11
2017-07-28T02:49:54.225Z,90.85
2017-07-28T02:52:24.159Z,89.99
2017-07-28T02:54:53.799Z,89.76
2017-07-28T02:57:24.207Z,89.99
2017-07-28T02:59:53.554Z,91.20
2017-07-28T03:02:25.840Z,90.03
2017-07-28T03:04:55.750Z,90.11
2017-07-28T03:07:25.319Z,90.07
2017-07-28T03:09:54.851Z,90.48
2017-07-28T03:12:24.699Z,92.39
2017-07-28T03:14:54.171Z,90.60
2017-07-28T03:17:24.367Z,90.55
2017-07-28T03:19:54.008Z,90.47
2017-07-28T03:22:24.026Z,90.60
2017-07-28T03:24:53.531Z,90.87
2017-07-28T03:27:24.309Z,91.20
2017-07-28T03:29:53.823Z,91.79
2017-07-28T03:32:24.494Z,91.66
2017-07-28T03:34:54.150Z,92.55
2017-07-28T03:37:24.526Z,91.54
2017-07-28T03:39:53.675Z,91.44
2017-07-28T03:42:25.428Z,91.63
2017-07-28T03:44:54.598Z,91.21
2017-07-28T03:47:26.159Z,91.30
2017-07-28T03:49:56.093Z,91.49
2017-07-28T03:52:25.816Z,91.94
2017-07-28T03:54:55.414Z,92.05
2017-07-28T03:57:26.675Z,92.25
2017-07-28T03:59:56.118Z,92.06
2017-07-28T04:02:26.565Z,91.72
2017-07-28T04:04:56.007Z,91.45
2017-07-28T04:07:25.288Z,91.64
2017-07-28T04:09:54.443Z,91.76
2017-07-28T04:12:25.494Z,91.93
2017-07-28T04:14:54.843Z,91.95
2017-07-28T04:17:25.307Z,91.60
2017-07-28T04:19:54.780Z,91.58
2017-07-28T04:22:26.684Z,91.58
2017-07-28T04:24:56.039Z,91.38
2017-07-28T04:27:25.314Z,91.42
2017-07-28T04:29:54.482Z,91.70
2017-07-28T04:32:26.375Z,92.22
2017-07-28T04:34:55.880Z,91.60
2017-07-28T04:37:25.700Z,91.24
2017-07-28T04:39:54.928Z,91.71
2017-07-28T04:42:25.419Z,91.13
2017-07-28T04:44:54.600Z,91.08
2017-07-28T04:47:26.116Z,91.79
2017-07-28T04:49:56.237Z,91.56
2017-07-28T04:52:25.703Z,91.87
2017-07-28T04:54:55.234Z,91.61
2017-07-28T04:57:25.139Z,91.39
2017-07-28T04:59:54.594Z,91.78
2017-07-28T05:02:24.255Z,91.94
2017-07-28T05:04:53.771Z,92.13
2017-07-28T05:07:24.427Z,91.99
2017-07-28T05:09:53.831Z,91.60
2017-07-28T05:12:24.208Z,92.41
2017-07-28T05:14:53.683Z,91.66
2017-07-28T05:17:24.379Z,91.52
2017-07-28T05:19:53.594Z,92.02
2017-07-28T05:22:24.834Z,91.81
2017-07-28T05:24:54.049Z,91.94
2017-07-28T05:27:24.399Z,91.43
2017-07-28T05:29:54.500Z,91.36
2017-07-28T05:32:24.606Z,91.16
2017-07-28T05:34:54.183Z,91.38
2017-07-28T05:37:24.068Z,91.34
2017-07-28T05:39:53.245Z,90.63
2017-07-28T05:42:23.373Z,90.16
2017-07-28T05:44:52.799Z,89.87
2017-07-28T05:47:24.900Z,90.20
2017-07-28T05:49:54.137Z,88.91
2017-07-28T05:52:27.466Z,88.74
2017-07-28T05:54:56.642Z,89.20
2017-07-28T05:57:25.988Z,87.58
2017-07-28T05:59:55.920Z,88.55
2017-07-28T06:02:25.150Z,87.35
2017-07-28T06:04:54.658Z,87.48
2017-07-28T06:07:24.147Z,87.65
2017-07-28T06:09:53.380Z,87.78
2017-07-28T06:12:22.802Z,88.07
2017-07-28T06:14:52.878Z,87.63
2017-07-28T06:17:22.179Z,87.43
2017-07-28T06:19:51.380Z,87.45
2017-07-28T06:22:20.802Z,86.68
2017-07-28T06:24:50.274Z,86.38
2017-07-28T06:27:19.746Z,86.94
2017-07-28T06:29:50.634Z,86.77
2017-07-28T06:32:19.906Z,86.78
2017-07-28T06:34:50.522Z,86.54
2017-07-28T06:37:21.292Z,85.23
2017-07-28T06:39:50.560Z,85.11
2017-07-28T06:42:19.733Z,85.46
2017-07-28T06:44:49.803Z,85.29
2017-07-28T06:47:19.111Z,85.24
2017-07-28T06:49:48.378Z,84.84
2017-07-28T06:52:17.947Z,85.00
2017-07-28T06:54:47.939Z,85.26
2017-07-28T06:57:17.099Z,83.73
2017-07-28T06:59:49.067Z,83.33
2017-07-28T07:02:18.332Z,81.40
2017-07-28T07:04:47.601Z,81.87
2017-07-28T07:07:17.034Z,81.01
2017-07-28T07:09:46.559Z,80.89
2017-07-28T07:12:16.029Z,79.36
2017-07-28T07:14:45.585Z,80.88
2017-07-28T07:17:14.855Z,79.12
2017-07-28T07:19:44.342Z,78.33
2017-07-28T07:22:13.938Z,80.02
2017-07-28T07:24:44.551Z,81.06
2017-07-28T07:27:13.868Z,80.01
2017-07-28T07:29:43.574Z,79.47
2017-07-28T07:32:12.892Z,79.82
2017-07-28T07:34:42.123Z,79.55
2017-07-28T07:37:11.683Z,78.15
2017-07-28T07:39:40.850Z,79.12
2017-07-28T07:42:09.994Z,77.65
2017-07-28T07:44:39.452Z,78.58
2017-07-28T07:47:08.592Z,79.46
2017-07-28T07:49:37.762Z,78.62
2017-07-28T07:52:07.208Z,78.42
2017-07-28T07:54:36.355Z,78.64
2017-07-28T07:57:05.855Z,79.58
2017-07-28T07:59:35.360Z,78.30
2017-07-28T08:02:04.554Z,78.13
2017-07-28T08:04:34.251Z,78.14
2017-07-28T08:07:03.730Z,77.66
2017-07-28T08:09:32.943Z,76.60
2017-07-28T08:12:02.163Z,73.50
2017-07-28T08:14:31.620Z,71.30
2017-07-28T08:17:01.832Z,72.61
2017-07-28T08:19:31.019Z,72.01
2017-07-28T08:22:01.767Z,72.84
2017-07-28T08:24:31.007Z,69.96
2017-07-28T08:27:01.267Z,70.71
2017-07-28T08:29:30.719Z,70.70
2017-07-28T08:32:00.927Z,67.25
2017-07-28T08:34:30.144Z,68.07
2017-07-28T08:37:02.666Z,65.46
2017-07-28T08:39:32.229Z,63.63
2017-07-28T08:42:02.918Z,61.68
2017-07-28T08:44:32.467Z,61.43
2017-07-28T08:47:03.174Z,61.77
2017-07-28T08:49:32.385Z,59.86
2017-07-28T08:52:03.200Z,61.84
2017-07-28T08:54:32.345Z,60.19
2017-07-28T08:57:01.979Z,57.90
2017-07-28T08:59:31.422Z,55.32
2017-07-28T09:02:02.854Z,56.60
2017-07-28T09:04:32.026Z,58.96
2017-07-28T09:07:02.653Z,54.83
2017-07-28T09:09:32.121Z,54.66
2017-07-28T09:12:01.818Z,53.09
2017-07-28T09:14:31.282Z,55.92
2017-07-28T09:17:05.788Z,54.49
2017-07-28T09:19:35.305Z,52.77
2017-07-28T09:22:04.750Z,55.28
2017-07-28T09:24:34.491Z,56.65
2017-07-28T09:27:04.063Z,57.25
2017-07-28T09:29:33.220Z,58.54
2017-07-28T09:32:02.462Z,60.40
2017-07-28T09:34:31.898Z,61.58
2017-07-28T09:37:01.724Z,62.88
2017-07-28T09:39:30.922Z,62.70
2017-07-28T09:42:03.278Z,61.89
2017-07-28T09:44:32.438Z,61.43
2017-07-28T09:47:01.850Z,59.76
2017-07-28T09:49:31.307Z,57.71
2017-07-28T09:52:01.747Z,57.85
2017-07-28T09:54:30.950Z,56.27
2017-07-28T09:57:03.226Z,58.25
2017-07-28T09:59:33.455Z,57.66
2017-07-28T10:02:04.408Z,58.70
2017-07-28T10:04:34.111Z,56.56
2017-07-28T10:07:03.306Z,53.73
2017-07-28T10:09:32.546Z,54.23
2017-07-28T10:12:02.426Z,54.18
2017-07-28T10:14:31.707Z,53.06
2017-07-28T10:17:02.705Z,52.67
2017-07-28T10:19:32.183Z,52.99
2017-07-28T10:22:01.919Z,53.24
2017-07-28T10:24:31.140Z,52.84
2017-07-28T10:27:02.118Z,52.07
2017-07-28T10:29:31.310Z,51.11
2017-07-28T10:32:01.863Z,49.04
2017-07-28T10:34:31.359Z,50.45
2017-07-28T10:37:03.939Z,50.46
2017-07-28T10:39:33.394Z,50.91
2017-07-28T10:42:02.853Z,51.59
2017-07-28T10:44:31.998Z,49.48
2017-07-28T10:47:02.143Z,48.23
2017-07-28T10:49:31.770Z,47.69
2017-07-28T10:52:02.007Z,46.46
2017-07-28T10:54:31.387Z,45.24
2017-07-28T10:57:02.115Z,44.39
2017-07-28T10:59:31.386Z,46.30
2017-07-28T11:02:02.477Z,48.59
2017-07-28T11:04:31.991Z,49.94
2017-07-28T11:07:02.154Z,53.14
2017-07-28T11:09:31.464Z,52.44
2017-07-28T11:12:02.615Z,50.91
2017-07-28T11:14:31.881Z,50.71
2017-07-28T11:17:01.942Z,48.91
2017-07-28T11:19:31.484Z,48.45
2017-07-28T11:22:01.223Z,49.05
2017-07-28T11:24:30.533Z,49.27
2017-07-28T11:27:01.203Z,47.81
2017-07-28T11:29:30.478Z,50.82
2017-07-28T11:32:01.071Z,49.54
2017-07-28T11:34:30.634Z,50.40
2017-07-28T11:37:01.274Z,49.71
2017-07-28T11:39:30.522Z,51.00
2017-07-28T11:42:01.265Z,50.32
2017-07-28T11:44:30.588Z,50.25
2017-07-28T11:47:01.791Z,49.86
2017-07-28T11:49:32.550Z,51.89
2017-07-28T11:52:02.742Z,49.60
2017-07-28T11:54:32.624Z,48.82
2017-07-28T11:57:02.510Z,48.33
2017-07-28T11:59:32.030Z,47.31
2017-07-28T12:02:02.008Z,46.83
2017-07-28T12:04:31.625Z,47.96
2017-07-28T12:07:02.599Z,48.61
2017-07-28T12:09:32.206Z,49.82
2017-07-28T12:12:03.187Z,49.18
2017-07-28T12:14:32.522Z,49.73
2017-07-28T12:17:02.147Z,50.55
2017-07-28T12:19:31.784Z,48.23
2017-07-28T12:22:02.165Z,47.78
2017-07-28T12:24:32.626Z,48.85
2017-07-28T12:27:02.192Z,49.17
2017-07-28T12:29:31.983Z,49.96
2017-07-28T12:32:02.650Z,49.81
2017-07-28T12:34:32.198Z,47.32
2017-07-28T12:37:01.846Z,47.31
2017-07-28T12:39:31.038Z,46.69
2017-07-28T12:42:03.496Z,48.03
2017-07-28T12:44:32.663Z,46.88
2017-07-28T12:47:02.032Z,46.25
2017-07-28T12:49:31.543Z,48.01
2017-07-28T12:52:02.184Z,47.62
2017-07-28T12:54:31.335Z,47.61
2017-07-28T12:57:02.730Z,49.26
2017-07-28T12:59:32.231Z,48.67
2017-07-28T13:02:02.407Z,46.49
2017-07-28T13:04:31.840Z,46.27
2017-07-28T13:07:02.018Z,43.61
2017-07-28T13:09:31.232Z,43.67
2017-07-28T13:12:03.135Z,43.45
2017-07-28T13:14:32.315Z,41.97
2017-07-28T13:17:02.687Z,41.91
2017-07-28T13:19:32.271Z,43.35
2017-07-28T13:22:02.350Z,42.81
2017-07-28T13:24:31.614Z,41.09
2017-07-28T13:27:02.443Z,41.20
2017-07-28T13:29:31.619Z,42.04
2017-07-28T13:32:02.109Z,42.10
2017-07-28T13:34:31.548Z,41.54
2017-07-28T13:37:02.084Z,43.47
2017-07-28T13:39:31.249Z,42.59
2017-07-28T13:42:03.300Z,43.36
2017-07-28T13:44:32.463Z,42.01
2017-07-28T13:47:03.326Z,45.55
2017-07-28T13:49:32.911Z,44.26
2017-07-28T13:52:02.132Z,44.82
2017-07-28T13:54:31.480Z,43.46
2017-07-28T13:57:02.234Z,45.11
2017-07-28T13:59:31.433Z,45.10
2017-07-28T14:02:02.022Z,44.37
2017-07-28T14:04:31.720Z,44.44
2017-07-28T14:07:01.979Z,43.47
2017-07-28T14:09:31.142Z,43.71
2017-07-28T14:12:03.547Z,43.55
2017-07-28T14:14:32.702Z,42.32
2017-07-28T14:17:02.892Z,43.43
2017-07-28T14:19:32.273Z,42.53
2017-07-28T14:22:01.909Z,41.50
2017-07-28T14:24:31.938Z,41.17
2017-07-28T14:27:02.001Z,41.23
2017-07-28T14:29:31.163Z,40.42
2017-07-28T14:32:02.367Z,41.83
2017-07-28T14:34:31.791Z,41.33
2017-07-28T14:37:01.930Z,42.74
2017-07-28T14:39:31.404Z,41.20
2017-07-28T14:42:03.802Z,41.85
2017-07-28T14:44:33.130Z,41.87
2017-07-28T14:47:02.614Z,44.32
2017-07-28T14:49:31.765Z,42.37
2017-07-28T14:52:02.035Z,43.58
2017-07-28T14:54:31.503Z,42.43
2017-07-28T14:57:00.675Z,42.90
2017-07-28T14:59:29.879Z,43.08
2017-07-28T15:02:01.043Z,43.57
2017-07-28T15:04:30.213Z,43.08
2017-07-28T15:07:00.587Z,42.04
2017-07-28T15:09:30.063Z,43.52
2017-07-28T15:12:00.934Z,43.45
2017-07-28T15:14:30.110Z,44.25
2017-07-28T15:16:59.573Z,44.84
2017-07-28T15:19:28.783Z,43.30
2017-07-28T15:21:59.242Z,44.62
2017-07-28T15:24:28.682Z,43.73
2017-07-28T15:26:59.297Z,43.63
2017-07-28T15:29:28.452Z,43.96
2017-07-28T15:31:59.186Z,44.73
2017-07-28T15:34:28.410Z,43.40
2017-07-28T15:36:58.612Z,44.15
2017-07-28T15:39:28.079Z,44.40
2017-07-28T15:41:57.303Z,43.56
2017-07-28T15:44:26.727Z,42.38
2017-07-28T15:46:56.234Z,43.53
2017-07-28T15:49:25.397Z,44.56
2017-07-28T15:51:54.559Z,44.02
2017-07-28T15:54:24.057Z,44.40
2017-07-28T15:56:53.226Z,44.17
2017-07-28T15:59:22.419Z,43.64
2017-07-28T16:01:51.920Z,43.62
2017-07-28T16:04:21.140Z,44.76
2017-07-28T16:06:50.322Z,47.46
2017-07-28T16:09:19.787Z,46.44
2017-07-28T16:11:48.971Z,47.76
2017-07-28T16:14:18.170Z,47.78
2017-07-28T16:16:47.641Z,46.49
2017-07-28T16:19:16.798Z,46.54
2017-07-28T16:21:45.966Z,48.50
2017-07-28T16:24:15.471Z,47.78
2017-07-28T16:26:44.668Z,48.98
2017-07-28T16:29:13.859Z,49.56
2017-07-28T16:31:43.286Z,49.04
2017-07-28T16:34:12.518Z,48.81
2017-07-28T16:36:41.659Z,49.58
2017-07-28T16:39:11.093Z,49.92
2017-07-28T16:41:40.614Z,49.38
2017-07-28T16:44:09.815Z,49.59
2017-07-28T16:46:39.270Z,50.12
2017-07-28T16:49:08.399Z,49.69
2017-07-28T16:51:37.583Z,49.59
2017-07-28T16:54:07.023Z,50.66
2017-07-28T16:56:36.518Z,50.60
2017-07-28T16:59:05.679Z,51.76
2017-07-28T17:01:35.127Z,51.32
2017-07-28T17:04:04.346Z,50.92
2017-07-28T17:06:33.516Z,50.90
2017-07-28T17:09:03.060Z,51.60
2017-07-28T17:11:32.270Z,52.03
2017-07-28T17:14:02.555Z,51.32
2017-07-28T17:16:32.286Z,52.63
2017-07-28T17:19:03.125Z,52.81
2017-07-28T17:21:32.632Z,52.74
2017-07-28T17:24:02.403Z,52.13
2017-07-28T17:26:31.894Z,51.13
2017-07-28T17:29:02.114Z,51.68
2017-07-28T17:31:31.542Z,51.00
2017-07-28T17:34:02.002Z,51.57
2017-07-28T17:36:31.243Z,51.55
2017-07-28T17:39:02.231Z,52.25
2017-07-28T17:41:31.388Z,52.08
2017-07-28T17:44:01.835Z,52.10
2017-07-28T17:46:31.474Z,52.32
2017-07-28T17:49:02.304Z,51.88
2017-07-28T17:51:31.578Z,51.50
2017-07-28T17:54:02.328Z,52.32
2017-07-28T17:56:31.590Z,53.42
2017-07-28T17:59:02.231Z,52.50
2017-07-28T18:01:31.775Z,53.18
2017-07-28T18:04:01.902Z,52.90
2017-07-28T18:06:31.203Z,52.70
2017-07-28T18:09:02.130Z,53.48
2017-07-28T18:11:31.409Z,53.67
2017-07-28T18:14:01.733Z,53.15
2017-07-28T18:16:31.327Z,54.50
2017-07-28T18:19:03.842Z,53.69
2017-07-28T18:21:33.207Z,53.42
2017-07-28T18:24:02.770Z,53.49
2017-07-28T18:26:31.962Z,54.53
2017-07-28T18:29:01.139Z,54.46
2017-07-28T18:31:30.686Z,54.31
2017-07-28T18:34:01.523Z,54.82
2017-07-28T18:36:30.782Z,54.68
2017-07-28T18:39:01.292Z,54.73
2017-07-28T18:41:30.458Z,55.06
2017-07-28T18:43:59.634Z,55.68
2017-07-28T18:46:29.119Z,55.66
2017-07-28T18:48:58.288Z,55.48
2017-07-28T18:51:27.486Z,55.96
2017-07-28T18:53:57.503Z,56.13
2017-07-28T18:56:26.691Z,56.66
2017-07-28T18:58:55.873Z,56.22
2017-07-28T19:01:25.320Z,57.48
2017-07-28T19:03:54.487Z,56.70
2017-07-28T19:06:23.862Z,56.50
2017-07-28T19:08:53.357Z,56.73
2017-07-28T19:11:22.599Z,57.92
2017-07-28T19:13:51.790Z,57.46
2017-07-28T19:16:21.287Z,57.38
2017-07-28T19:18:50.518Z,58.11
2017-07-28T19:21:19.737Z,58.01
2017-07-28T19:23:49.205Z,58.07
2017-07-28T19:26:18.531Z,58.14
2017-07-28T19:28:47.761Z,58.11
2017-07-28T19:31:17.226Z,58.75
2017-07-28T19:33:46.522Z,59.77
2017-07-28T19:36:15.736Z,59.85
2017-07-28T19:38:45.243Z,60.02
2017-07-28T19:41:14.494Z,60.26
2017-07-28T19:43:43.870Z,60.31
2017-07-28T19:46:13.330Z,60.48
2017-07-28T19:48:42.540Z,60.46
2017-07-28T19:51:11.827Z,60.89
2017-07-28T19:53:41.371Z,61.17
2017-07-28T19:56:10.594Z,61.59
2017-07-28T19:58:40.006Z,61.59
2017-07-28T20:01:09.576Z,61.51
2017-07-28T20:03:38.839Z,61.17
2017-07-28T20:06:08.083Z,61.19
2017-07-28T20:08:38.053Z,61.60
2017-07-28T20:11:07.498Z,61.51
2017-07-28T20:13:36.779Z,61.65
2017-07-28T20:16:07.903Z,62.08
2017-07-28T20:18:37.137Z,62.64
2017-07-28T20:21:06.347Z,62.35
2017-07-28T20:23:35.778Z,61.94
2017-07-28T20:26:04.971Z,62.96
2017-07-28T20:28:34.166Z,62.78
2017-07-28T20:31:03.642Z,63.17
2017-07-28T20:33:32.822Z,62.95
2017-07-28T20:36:01.979Z,63.17
2017-07-28T20:38:31.468Z,63.06
2017-07-28T20:41:00.663Z,63.13
2017-07-28T20:43:29.815Z,62.98
2017-07-28T20:45:59.425Z,63.12
2017-07-28T20:48:28.638Z,63.52
2017-07-28T20:50:57.834Z,63.59
2017-07-28T20:53:27.274Z,63.41
2017-07-28T20:55:56.459Z,64.41
2017-07-28T20:58:25.635Z,63.74
2017-07-28T21:00:55.102Z,64.60
2017-07-28T21:03:24.263Z,64.05
2017-07-28T21:05:53.780Z,64.98
2017-07-28T21:08:23.250Z,64.73
2017-07-28T21:10:52.602Z,65.03
2017-07-28T21:13:21.986Z,64.89
2017-07-28T21:15:51.489Z,65.64
2017-07-28T21:18:20.951Z,65.26
2017-07-28T21:20:50.098Z,65.33
2017-07-28T21:23:19.571Z,65.12
2017-07-28T21:25:48.934Z,65.60
2017-07-28T21:28:18.119Z,65.49
2017-07-28T21:30:47.563Z,65.52
2017-07-28T21:33:16.734Z,65.05
2017-07-28T21:35:45.901Z,65.15
2017-07-28T21:38:15.403Z,65.21
2017-07-28T21:40:44.566Z,65.45
2017-07-28T21:43:13.721Z,65.57
2017-07-28T21:45:43.163Z,65.67
2017-07-28T21:48:12.307Z,65.67
2017-07-28T21:50:41.462Z,65.58
2017-07-28T21:53:11.119Z,65.41
2017-07-28T21:55:40.635Z,65.51
2017-07-28T21:58:09.810Z,65.31
2017-07-28T22:00:39.643Z,65.65
2017-07-28T22:03:08.935Z,65.82
2017-07-28T22:05:38.107Z,66.12
2017-07-28T22:08:07.530Z,66.22
2017-07-28T22:10:36.743Z,66.43
2017-07-28T22:13:05.953Z,66.15
2017-07-28T22:15:35.382Z,66.37
2017-07-28T22:18:04.820Z,66.40
2017-07-28T22:20:33.953Z,66.61
2017-07-28T22:23:03.936Z,66.60
2017-07-28T22:25:33.583Z,66.98
2017-07-28T22:28:04.238Z,66.87
2017-07-28T22:30:34.235Z,67.03
2017-07-28T22:33:03.406Z,67.21
2017-07-28T22:35:32.576Z,67.04
2017-07-28T22:38:02.359Z,66.99
2017-07-28T22:40:31.530Z,66.93
2017-07-28T22:43:02.394Z,66.95
2017-07-28T22:45:32.033Z,66.78
2017-07-28T22:48:02.287Z,66.86
2017-07-28T22:50:31.446Z,66.65
2017-07-28T22:53:00.877Z,66.56
2017-07-28T22:55:30.074Z,66.78
2017-07-28T22:58:00.405Z,68.64
2017-07-28T23:00:30.270Z,69.76
2017-07-28T23:03:01.459Z,70.42
2017-07-28T23:05:31.172Z,71.87
2017-07-28T23:08:02.391Z,71.10
2017-07-28T23:10:31.836Z,72.86
2017-07-28T23:13:02.759Z,70.28
2017-07-28T23:15:32.174Z,69.89
2017-07-28T23:18:02.269Z,70.07
2017-07-28T23:20:31.790Z,71.66
2017-07-28T23:23:02.631Z,72.65
2017-07-28T23:25:32.016Z,72.63
2017-07-28T23:28:02.209Z,72.38
2017-07-28T23:30:31.629Z,71.49
2017-07-28T23:33:02.393Z,72.20
2017-07-28T23:35:31.771Z,71.57
2017-07-28T23:38:02.127Z,70.80
2017-07-28T23:40:31.310Z,69.76
2017-07-28T23:43:02.132Z,71.27
2017-07-28T23:45:31.570Z,71.67
2017-07-28T23:48:04.224Z,71.98
2017-07-28T23:50:33.375Z,72.19
2017-07-28T23:53:03.185Z,71.16
2017-07-28T23:55:32.356Z,72.12
2017-07-28T23:58:04.729Z,71.51
